Terminal Aerodrome Forecast
Issued by NWS Shreveport, LA

Home | Current Version | Previous Version | Text Only | Print | Product List | Glossary On
Versions: 1 2 3 4 5 6 7 8 9 10 11 12 13
000
FTUS44 KSHV 191122
TAFSHV
TAF
KSHV 191122Z 1912/2012 00000KT P6SM BKN280
      TEMPO 1912/1914 5SM BR
     FM191400 11003KT P6SM SCT015 BKN280
     FM191600 12005KT P6SM BKN030 BKN280
     FM192000 10006KT P6SM SCT035 BKN250
     FM200200 11004KT P6SM BKN250
     FM201000 VRB02KT P6SM BKN040 BKN250=

USA.gov is the U.S. government's official web portal to all federal, state and local government web resources and services.